Nova Santa Rosa, Brazil
Current Conditions -  °F | °C
As of 9:00 PM on Friday 24 Oct 2014 (Local Time) from SBCA Reporting Station
Scattered Clouds Scattered Clouds  
Wind Chill: 70°   Ceiling: Unl
Heat Index: 70°   Visibility: 6mi
Dew Point: 66°   Wind: 5mph
Humidity: 88%   Direction: 70°ENE
Pressure: 29.97"   Gusts: NA
Location:  24.47°S, 53.95°W
Report Text: SBCA 242300Z 07004KT 9999 FEW030 SCT080 21/19 Q1015
Loading
Personal Weather Stations






























Interactive Weather Map
Tropical Storm Tracking
New forecast layout! Learn more

10-Day Weather Forecast

Advertisements
Track Severe Weather on mobile